Time;durP1;ratioP1;P1;durP2;ratioP2;P2;SDS_P1;SDS_P2;PMS_P1;PMS_P2;Temp;Humidity;BMP_temperature;BMP_pressure;BME280_temperature;BME280_humidity;BME280_pressure;Samples;Min_cycle;Max_cycle;Signal;HPM_P1;HPM_P2
2022/03/16 00:00:12;;;;;;;;;;;5.60;99.90;;;;;;5045489;28;20033;-55
2022/03/16 00:02:38;;;;;;;44.65;24.40;;;5.60;99.90;;;;;;5046183;28;19915;-57
2022/03/16 00:05:04;;;;;;;42.47;22.95;;;5.50;99.90;;;;;;5046426;28;20035;-57
2022/03/16 00:07:30;;;;;;;37.85;25.17;;;5.50;99.90;;;;;;5046385;28;20025;-54
2022/03/16 00:09:55;;;;;;;40.45;25.45;;;5.50;99.90;;;;;;5045757;28;20025;-57
2022/03/16 00:12:21;;;;;;;46.10;25.63;;;5.50;99.90;;;;;;5045290;28;20029;-56
2022/03/16 00:14:46;;;;;;;39.20;24.42;;;5.40;99.90;;;;;;5046368;28;20620;-55
2022/03/16 00:17:12;;;;;;;44.95;26.48;;;5.40;99.90;;;;;;5045441;28;20040;-56
2022/03/16 00:19:39;;;;;;;46.83;26.40;;;5.40;99.90;;;;;;5046451;28;20040;-57
2022/03/16 00:22:05;;;;;;;40.50;25.33;;;5.40;99.90;;;;;;5045727;28;20061;-57
2022/03/16 00:24:31;;;;;;;41.25;24.23;;;5.40;99.90;;;;;;5045476;28;20435;-57
2022/03/16 00:26:57;;;;;;;;;;;5.40;99.90;;;;;;5046026;28;20037;-55
2022/03/16 00:29:22;;;;;;;42.35;23.80;;;5.40;99.90;;;;;;5042563;28;20327;-58
2022/03/16 00:31:48;;;;;;;40.78;24.02;;;5.40;99.90;;;;;;5042738;28;20424;-57
2022/03/16 00:34:13;;;;;;;41.92;24.60;;;5.40;99.90;;;;;;5045576;28;20033;-55
2022/03/16 00:36:39;;;;;;;40.80;23.35;;;5.40;99.90;;;;;;5046758;28;20587;-56
2022/03/16 00:39:05;;;;;;;38.30;23.10;;;5.40;99.90;;;;;;5045565;28;20121;-56
2022/03/16 00:41:32;;;;;;;44.70;23.63;;;5.40;99.90;;;;;;5046197;28;20021;-55
2022/03/16 00:43:58;;;;;;;43.45;24.92;;;5.40;99.90;;;;;;5045183;28;20028;-56
2022/03/16 00:46:23;;;;;;;40.78;23.13;;;5.40;99.90;;;;;;5046102;28;20044;-56
2022/03/16 00:48:49;;;;;;;38.42;24.77;;;5.30;99.90;;;;;;5045022;28;20156;-57
2022/03/16 00:51:15;;;;;;;45.70;25.38;;;5.30;99.90;;;;;;5045981;28;20043;-56
2022/03/16 00:53:41;;;;;;;46.83;24.13;;;5.20;99.90;;;;;;5045540;28;20081;-55
2022/03/16 00:56:08;;;;;;;42.17;25.38;;;5.20;99.90;;;;;;5045228;28;20130;-57
2022/03/16 00:58:34;;;;;;;43.95;23.45;;;5.20;99.90;;;;;;5045129;28;20496;-58
2022/03/16 01:01:00;;;;;;;;;;;5.10;99.90;;;;;;5043807;28;20109;-57
2022/03/16 01:03:27;;;;;;;44.58;22.42;;;5.10;99.90;;;;;;5045190;28;20416;-57
2022/03/16 01:05:53;;;;;;;41.30;21.92;;;5.10;99.90;;;;;;5040973;28;20405;-57
2022/03/16 01:08:18;;;;;;;37.03;22.40;;;5.10;99.90;;;;;;5046587;28;20029;-57
2022/03/16 01:10:44;;;;;;;40.67;24.55;;;5.10;99.90;;;;;;5045796;28;20454;-57
2022/03/16 01:13:09;;;;;;;42.22;24.77;;;5.10;99.90;;;;;;5045354;28;20508;-57
2022/03/16 01:15:35;;;;;;;40.92;22.85;;;5.00;99.90;;;;;;5045226;28;20486;-57
2022/03/16 01:18:01;;;;;;;44.10;24.48;;;5.00;99.90;;;;;;5045800;28;20024;-57
2022/03/16 01:20:27;;;;;;;46.85;25.67;;;5.00;99.90;;;;;;5045322;28;20056;-56
2022/03/16 01:22:53;;;;;;;45.10;25.27;;;5.00;99.90;;;;;;5044803;28;20055;-56
2022/03/16 01:25:18;;;;;;;39.95;23.13;;;5.00;99.90;;;;;;5045265;28;20033;-57
2022/03/16 01:27:44;;;;;;;46.03;25.58;;;5.00;99.90;;;;;;5045523;28;20397;-57
2022/03/16 01:30:10;;;;;;;41.83;22.73;;;5.00;99.90;;;;;;5044463;28;20384;-57
2022/03/16 01:32:35;;;;;;;38.05;24.63;;;5.00;99.90;;;;;;5045278;28;20044;-57
2022/03/16 01:35:02;;;;;;;44.88;24.38;;;5.00;99.90;;;;;;5044443;28;20120;-57
2022/03/16 01:37:27;;;;;;;39.95;23.48;;;5.00;99.90;;;;;;5044954;28;20420;-58
2022/03/16 01:39:53;;;;;;;38.90;23.52;;;5.00;99.90;;;;;;5045024;28;20033;-56
2022/03/16 01:42:20;;;;;;;42.45;23.15;;;5.00;99.90;;;;;;5044218;28;20033;-57
2022/03/16 01:44:51;;;;;;;43.45;24.75;;;5.00;99.90;;;;;;5044960;28;20075;-56
2022/03/16 01:47:18;;;;;;;35.72;22.48;;;4.90;99.90;;;;;;5044330;28;20557;-56
2022/03/16 01:49:45;;;;;;;42.63;25.30;;;4.90;99.90;;;;;;5060489;28;20036;-57
2022/03/16 01:52:13;;;;;;;41.17;23.63;;;4.80;99.90;;;;;;5041714;28;20086;-57
2022/03/16 01:54:40;;;;;;;41.55;26.40;;;4.80;99.90;;;;;;5044130;28;20037;-56
2022/03/16 01:57:09;;;;;;;42.92;24.95;;;4.70;99.90;;;;;;5044553;28;20431;-57
2022/03/16 01:59:36;;;;;;;45.42;24.95;;;4.70;99.90;;;;;;5043884;28;20299;-56
2022/03/16 02:02:04;;;;;;;41.42;23.25;;;4.70;99.90;;;;;;5043312;28;20033;-57
2022/03/16 02:04:29;;;;;;;39.78;23.38;;;4.70;99.90;;;;;;5044919;28;20040;-56
2022/03/16 02:06:55;;;;;;;46.53;24.60;;;4.60;99.90;;;;;;5045497;28;20030;-57
2022/03/16 02:09:23;;;;;;;41.05;25.23;;;4.60;99.90;;;;;;5044465;28;20094;-56
2022/03/16 02:11:49;;;;;;;46.85;26.85;;;4.60;99.90;;;;;;5044393;28;20028;-57
2022/03/16 02:14:14;;;;;;;42.80;23.80;;;4.50;99.90;;;;;;5043343;28;20032;-57
2022/03/16 02:16:40;;;;;;;39.83;23.73;;;4.50;99.90;;;;;;5045126;28;20033;-56
2022/03/16 02:19:05;;;;;;;48.35;26.05;;;4.40;99.90;;;;;;5051227;28;20057;-56
2022/03/16 02:21:36;;;;;;;42.63;24.30;;;4.40;99.90;;;;;;5051754;28;20108;-57
2022/03/16 02:24:02;;;;;;;44.88;24.77;;;4.40;99.90;;;;;;5051220;28;20108;-57
2022/03/16 02:26:28;;;;;;;48.50;27.30;;;4.40;99.90;;;;;;5051802;28;20013;-57
2022/03/16 02:28:54;;;;;;;62.28;32.65;;;4.40;99.90;;;;;;5046372;28;20032;-57
2022/03/16 02:31:20;;;;;;;54.50;29.95;;;4.30;99.90;;;;;;5047208;28;20417;-57
2022/03/16 02:33:46;;;;;;;51.00;28.80;;;4.20;99.90;;;;;;5047666;28;20414;-57
2022/03/16 02:36:12;;;;;;;48.67;27.33;;;4.10;99.90;;;;;;5048697;28;20049;-57
2022/03/16 02:38:37;;;;;;;58.88;31.15;;;4.00;99.90;;;;;;5046820;28;20036;-57
2022/03/16 02:41:03;;;;;;;53.92;28.55;;;3.90;99.90;;;;;;5048211;28;20032;-57
2022/03/16 02:43:29;;;;;;;54.75;28.95;;;3.80;99.90;;;;;;5048242;28;20061;-57
2022/03/16 02:45:55;;;;;;;51.20;28.17;;;3.80;99.90;;;;;;5048028;28;20079;-56
2022/03/16 02:48:21;;;;;;;50.53;28.75;;;3.80;99.90;;;;;;5048159;28;20043;-57
2022/03/16 02:50:47;;;;;;;45.35;26.13;;;3.80;99.90;;;;;;5048276;28;20036;-57
2022/03/16 02:53:13;;;;;;;50.92;27.40;;;3.80;99.90;;;;;;5048834;28;20041;-56
2022/03/16 02:55:38;;;;;;;52.17;25.15;;;3.80;99.90;;;;;;5045153;28;20079;-57
2022/03/16 02:58:04;;;;;;;48.42;26.75;;;3.80;99.90;;;;;;5048908;28;20025;-57
2022/03/16 03:00:29;;;;;;;46.05;24.92;;;3.70;99.90;;;;;;5047088;28;20075;-56
2022/03/16 03:02:55;;;;;;;40.53;23.10;;;3.70;99.90;;;;;;5048466;28;20664;-57
2022/03/16 03:05:22;;;;;;;44.35;25.75;;;3.80;99.90;;;;;;5048365;28;20051;-57
2022/03/16 03:07:47;;;;;;;43.70;24.65;;;3.80;99.90;;;;;;5048674;28;20033;-56
2022/03/16 03:10:13;;;;;;;37.80;21.98;;;3.70;99.90;;;;;;5043209;28;20055;-55
2022/03/16 03:12:39;;;;;;;36.00;21.13;;;3.70;99.90;;;;;;5045463;28;20124;-56
2022/03/16 03:15:05;;;;;;;38.72;21.55;;;3.60;99.90;;;;;;5062418;28;20124;-57
2022/03/16 03:17:31;;;;;;;33.33;20.58;;;3.60;99.90;;;;;;5047572;28;20367;-57
2022/03/16 03:19:57;;;;;;;31.60;19.70;;;3.50;99.90;;;;;;5047528;28;20083;-56
2022/03/16 03:22:27;;;;;;;;;;;3.50;99.90;;;;;;5047158;28;20351;-57
2022/03/16 03:24:53;;;;;;;35.72;18.20;;;3.40;99.90;;;;;;5045852;28;20000;-56
2022/03/16 03:27:19;;;;;;;;;;;3.30;99.90;;;;;;5045251;28;20037;-57
2022/03/16 03:29:44;;;;;;;28.30;16.58;;;3.30;99.90;;;;;;5046243;28;20023;-57
2022/03/16 03:32:10;;;;;;;25.60;15.75;;;3.30;99.90;;;;;;5044609;28;20028;-58
2022/03/16 03:34:35;;;;;;;31.30;18.42;;;3.30;99.90;;;;;;5046036;28;20028;-57
2022/03/16 03:37:01;;;;;;;23.40;15.55;;;3.30;99.90;;;;;;5046323;28;20024;-57
2022/03/16 03:39:27;;;;;;;28.70;16.02;;;3.30;99.90;;;;;;5042517;28;20173;-57
2022/03/16 03:41:52;;;;;;;23.73;15.45;;;3.20;99.90;;;;;;5044331;28;20021;-57
2022/03/16 03:44:18;;;;;;;26.45;16.55;;;3.20;99.90;;;;;;5044637;28;20056;-56
2022/03/16 03:46:43;;;;;;;41.17;17.27;;;3.20;99.90;;;;;;5044594;28;20041;-57
2022/03/16 03:49:09;;;;;;;44.72;16.13;;;3.10;99.90;;;;;;5046661;28;20036;-56
2022/03/16 03:51:34;;;;;;;64.72;18.83;;;3.00;99.90;;;;;;5045686;28;20128;-56
2022/03/16 03:54:00;;;;;;;92.75;16.50;;;3.00;99.90;;;;;;5045592;28;20490;-57
2022/03/16 03:56:25;;;;;;;46.65;15.40;;;2.90;99.90;;;;;;5045568;28;20029;-56
2022/03/16 03:58:51;;;;;;;42.53;15.27;;;2.90;99.90;;;;;;5045014;28;20094;-56
2022/03/16 04:01:16;;;;;;;55.42;15.93;;;2.90;99.90;;;;;;5041715;28;20033;-57
2022/03/16 04:03:43;;;;;;;51.67;16.15;;;2.90;99.90;;;;;;5046574;28;20037;-54
2022/03/16 04:06:09;;;;;;;52.95;16.02;;;2.90;99.90;;;;;;5046988;28;20104;-57
2022/03/16 04:08:35;;;;;;;23.48;12.88;;;2.90;99.90;;;;;;5045862;28;20029;-57
2022/03/16 04:11:01;;;;;;;70.70;16.67;;;2.80;99.90;;;;;;5045915;28;20051;-55
2022/03/16 04:13:27;;;;;;;67.25;14.68;;;2.90;99.90;;;;;;5045270;28;20394;-56
2022/03/16 04:15:52;;;;;;;38.58;15.48;;;2.80;99.90;;;;;;5045576;28;20029;-57
2022/03/16 04:18:18;;;;;;;47.05;14.00;;;2.60;99.90;;;;;;5046751;28;20025;-56
2022/03/16 04:20:43;;;;;;;47.53;14.68;;;2.60;99.90;;;;;;5044690;28;20429;-57
2022/03/16 04:23:09;;;;;;;27.25;14.25;;;2.50;99.90;;;;;;5045584;28;20025;-56
2022/03/16 04:25:34;;;;;;;35.65;15.27;;;2.50;99.90;;;;;;5045638;28;20426;-55
2022/03/16 04:28:00;;;;;;;37.58;14.98;;;2.50;99.90;;;;;;5047002;28;20466;-54
2022/03/16 04:30:25;;;;;;;38.55;15.00;;;2.60;99.90;;;;;;5045732;28;20079;-57
2022/03/16 04:32:52;;;;;;;22.65;14.70;;;2.60;99.90;;;;;;5046597;28;20033;-59
2022/03/16 04:35:19;;;;;;;26.55;15.23;;;2.50;99.90;;;;;;5044922;28;20040;-56
2022/03/16 04:37:46;;;;;;;35.50;15.98;;;2.60;99.90;;;;;;5046198;28;20448;-55
2022/03/16 04:40:12;;;;;;;29.73;15.65;;;2.60;99.90;;;;;;5044842;28;20029;-56
2022/03/16 04:42:38;;;;;;;29.50;16.02;;;2.50;99.90;;;;;;5043424;28;20797;-54
2022/03/16 04:45:04;;;;;;;26.55;15.45;;;2.50;99.90;;;;;;5044768;28;20409;-56
2022/03/16 04:47:30;;;;;;;;;;;2.40;99.90;;;;;;5045768;28;20036;-57
2022/03/16 04:49:55;;;;;;;20.95;12.88;;;2.40;99.90;;;;;;5045319;28;20393;-56
2022/03/16 04:52:22;;;;;;;30.77;14.63;;;2.30;99.90;;;;;;5044490;28;20032;-55
2022/03/16 04:54:47;;;;;;;;;;;2.20;99.90;;;;;;5045426;28;20052;-56
2022/03/16 04:57:13;;;;;;;19.58;11.02;;;2.20;99.90;;;;;;5045095;28;19905;-57
2022/03/16 04:59:38;;;;;;;23.75;14.18;;;2.20;99.90;;;;;;5045147;28;20549;-58
2022/03/16 05:02:04;;;;;;;20.40;12.52;;;2.10;99.90;;;;;;5042025;28;20323;-57
2022/03/16 05:04:30;;;;;;;16.23;12.00;;;2.20;99.90;;;;;;5044062;28;20049;-57
2022/03/16 05:09:26;;;;;;;17.00;11.85;;;2.10;99.90;;;;;;5001281;28;20061;-48
2022/03/16 05:11:52;;;;;;;19.45;13.45;;;2.00;99.90;;;;;;4999633;28;20027;-50
2022/03/16 05:14:17;;;;;;;17.48;11.18;;;2.00;99.90;;;;;;5005210;28;20507;-48
2022/03/16 05:16:43;;;;;;;16.90;11.77;;;2.00;99.90;;;;;;4999939;28;20030;-46
2022/03/16 05:19:08;;;;;;;18.13;12.18;;;2.00;99.90;;;;;;5004508;28;20160;-50
2022/03/16 05:21:34;;;;;;;15.85;11.43;;;2.00;99.90;;;;;;5006653;28;20379;-51
2022/03/16 05:23:59;;;;;;;14.32;11.35;;;2.00;99.90;;;;;;5006151;28;20106;-50
2022/03/16 05:26:25;;;;;;;16.45;12.57;;;2.00;99.90;;;;;;5006101;28;20173;-50
2022/03/16 05:28:52;;;;;;;16.23;11.15;;;2.00;99.90;;;;;;5005472;28;20045;-50
2022/03/16 05:31:19;;;;;;;18.15;12.45;;;2.00;99.90;;;;;;5002677;28;20049;-48
2022/03/16 05:33:44;;;;;;;15.52;10.63;;;2.00;99.90;;;;;;5001583;28;20034;-50
2022/03/16 05:36:10;;;;;;;17.33;12.15;;;2.00;99.90;;;;;;5000507;28;20025;-50
2022/03/16 05:38:35;;;;;;;13.48;10.18;;;2.00;99.90;;;;;;5003648;28;20025;-51
2022/03/16 05:41:01;;;;;;;16.23;11.95;;;2.00;99.90;;;;;;5003233;28;20037;-49
2022/03/16 05:43:27;;;;;;;20.02;14.27;;;1.90;99.90;;;;;;5004518;28;20034;-48
2022/03/16 05:45:53;;;;;;;;;;;2.00;99.90;;;;;;5004512;28;20040;-48
2022/03/16 05:48:18;;;;;;;15.75;11.57;;;2.00;99.90;;;;;;5005897;28;19906;-49
2022/03/16 05:50:47;;;;;;;14.13;9.95;;;2.00;99.90;;;;;;5004835;28;20048;-47
2022/03/16 05:53:14;;;;;;;15.00;11.40;;;2.10;99.90;;;;;;5007433;28;20025;-52
2022/03/16 05:55:40;;;;;;;18.70;12.35;;;2.10;99.90;;;;;;5008820;28;20026;-49
2022/03/16 05:58:06;;;;;;;19.88;11.07;;;2.10;99.90;;;;;;5009379;28;20136;-50
2022/03/16 06:00:32;;;;;;;16.05;12.00;;;2.20;99.90;;;;;;5007789;28;20042;-49
2022/03/16 06:02:57;;;;;;;21.83;13.90;;;2.30;99.90;;;;;;5008354;28;20030;-50
2022/03/16 06:05:24;;;;;;;15.48;11.07;;;2.30;99.90;;;;;;5008222;28;20080;-50
2022/03/16 06:07:49;;;;;;;;;;;2.40;99.90;;;;;;5008803;28;20041;-48
2022/03/16 06:10:17;;;;;;;14.30;10.35;;;2.40;99.90;;;;;;5007976;28;19913;-49
2022/03/16 06:13:00;;;;;;;24.83;15.50;;;2.40;99.90;;;;;;5006622;28;20038;-49
2022/03/16 06:15:28;;;;;;;16.90;11.73;;;2.40;99.90;;;;;;5007503;28;20505;-50
2022/03/16 06:17:58;;;;;;;20.75;12.45;;;2.40;99.90;;;;;;5008474;28;20026;-49
2022/03/16 06:20:25;;;;;;;17.30;13.18;;;2.50;99.90;;;;;;5007984;28;20018;-47
2022/03/16 06:22:51;;;;;;;17.80;12.13;;;2.60;99.90;;;;;;5007382;28;20041;-48
2022/03/16 06:25:17;;;;;;;21.02;14.82;;;2.60;99.90;;;;;;5001778;28;20030;-49
2022/03/16 06:27:43;;;;;;;16.73;12.90;;;2.70;99.90;;;;;;5007108;28;20085;-47
2022/03/16 06:30:09;;;;;;;17.38;13.00;;;2.80;99.90;;;;;;5007305;28;20030;-51
2022/03/16 06:32:35;;;;;;;21.15;12.63;;;2.90;99.90;;;;;;5006872;28;20026;-51
2022/03/16 06:35:01;;;;;;;18.20;13.45;;;3.00;99.90;;;;;;5007486;28;20026;-49
2022/03/16 06:37:27;;;;;;;23.73;14.35;;;3.10;99.90;;;;;;5008088;28;20022;-47
2022/03/16 06:39:52;;;;;;;22.70;13.80;;;3.10;99.90;;;;;;5009234;28;20029;-48
2022/03/16 06:42:18;;;;;;;20.95;12.70;;;3.20;99.90;;;;;;5008935;28;20116;-48
2022/03/16 06:44:43;;;;;;;17.33;12.00;;;3.30;99.90;;;;;;5009070;28;20026;-48
2022/03/16 06:47:09;;;;;;;19.65;12.48;;;3.40;99.90;;;;;;5008360;28;20100;-48
2022/03/16 06:49:34;;;;;;;19.52;12.68;;;3.60;99.90;;;;;;5007567;28;20443;-46
2022/03/16 06:52:00;;;;;;;21.95;12.07;;;3.70;99.90;;;;;;5008532;28;20421;-51
2022/03/16 06:54:26;;;;;;;16.92;11.88;;;3.80;99.90;;;;;;5008510;28;20045;-50
2022/03/16 06:56:51;;;;;;;20.52;13.68;;;4.00;99.90;;;;;;5008062;28;20022;-49
2022/03/16 06:59:17;;;;;;;19.65;13.43;;;4.00;99.90;;;;;;5008749;28;20037;-49
2022/03/16 07:01:42;;;;;;;20.35;13.00;;;4.10;99.90;;;;;;5009274;28;20100;-50
2022/03/16 07:04:08;;;;;;;23.83;13.50;;;4.20;99.90;;;;;;5007404;28;20391;-50
2022/03/16 07:06:34;;;;;;;21.42;14.38;;;4.20;99.90;;;;;;5004461;28;20050;-49
2022/03/16 07:08:59;;;;;;;18.80;12.73;;;4.30;99.90;;;;;;5003774;28;20042;-48
2022/03/16 07:11:24;;;;;;;18.88;13.38;;;4.40;99.90;;;;;;5007749;28;20128;-50
2022/03/16 07:16:34;;;;;;;16.80;12.15;;;4.50;99.90;;;;;;5006006;28;20064;-49
2022/03/16 07:19:01;;;;;;;20.10;13.95;;;4.50;99.90;;;;;;5004571;28;20034;-47
2022/03/16 07:21:26;;;;;;;19.40;13.10;;;4.60;99.90;;;;;;5003117;28;20045;-47
2022/03/16 07:23:52;;;;;;;24.88;14.70;;;4.60;99.90;;;;;;5004290;28;20022;-52
2022/03/16 07:26:18;;;;;;;25.08;15.80;;;4.70;99.90;;;;;;5007088;28;20042;-50
2022/03/16 07:28:43;;;;;;;27.30;16.83;;;4.70;99.90;;;;;;5006354;28;20132;-48
2022/03/16 07:31:09;;;;;;;22.80;15.40;;;4.70;99.90;;;;;;5005065;28;20483;-49
2022/03/16 07:33:35;;;;;;;;;;;4.80;99.90;;;;;;5007778;28;20026;-49
2022/03/16 07:36:01;;;;;;;23.15;12.98;;;4.80;99.90;;;;;;5007037;28;19924;-48
2022/03/16 07:38:27;;;;;;;27.45;16.42;;;4.90;99.90;;;;;;5005980;28;20021;-51
2022/03/16 07:40:52;;;;;;;21.40;15.52;;;4.90;99.90;;;;;;5008461;28;20080;-52
2022/03/16 07:43:18;;;;;;;27.27;15.70;;;5.00;99.90;;;;;;5008166;28;20072;-50
2022/03/16 07:45:44;;;;;;;23.88;15.80;;;5.10;99.90;;;;;;5005519;28;20034;-48
2022/03/16 07:48:09;;;;;;;29.10;16.00;;;5.20;99.90;;;;;;5004104;28;20045;-47
2022/03/16 07:50:35;;;;;;;33.22;19.75;;;5.30;99.90;;;;;;5006489;28;20042;-50
2022/03/16 07:53:01;;;;;;;27.20;17.15;;;5.40;99.90;;;;;;5006141;28;20038;-51
2022/03/16 07:55:28;;;;;;;24.85;16.15;;;5.50;99.90;;;;;;5006021;28;20030;-47
2022/03/16 07:57:55;;;;;;;27.55;18.20;;;5.60;99.90;;;;;;5003030;28;20055;-50
2022/03/16 08:00:21;;;;;;;32.47;19.45;;;5.70;99.90;;;;;;5004204;28;20034;-49
2022/03/16 08:02:47;;;;;;;;;;;5.80;99.90;;;;;;5006877;28;20108;-47
2022/03/16 08:05:14;;;;;;;30.85;19.70;;;5.90;99.90;;;;;;5004122;28;20340;-51
2022/03/16 08:07:40;;;;;;;28.35;19.08;;;6.00;99.90;;;;;;5005506;28;20475;-46
2022/03/16 08:10:05;;;;;;;27.05;18.00;;;6.10;99.90;;;;;;5005974;28;20450;-48
2022/03/16 08:12:31;;;;;;;27.23;19.05;;;6.20;99.90;;;;;;5005132;28;20404;-47
2022/03/16 08:14:57;;;;;;;23.88;18.55;;;6.30;99.90;;;;;;5006063;28;20467;-53
2022/03/16 08:17:23;;;;;;;34.30;18.95;;;6.40;99.90;;;;;;5003426;28;20037;-50
2022/03/16 08:19:49;;;;;;;26.95;19.38;;;6.50;99.90;;;;;;5005033;28;20026;-49
2022/03/16 08:22:31;;;;;;;30.13;19.90;;;6.60;99.90;;;;;;5005225;28;20036;-53
2022/03/16 08:24:59;;;;;;;35.58;19.33;;;6.70;99.90;;;;;;5004619;28;20026;-48
2022/03/16 08:27:25;;;;;;;38.78;21.67;;;6.80;99.90;;;;;;5006546;28;20041;-49
2022/03/16 08:29:52;;;;;;;26.95;18.65;;;6.80;99.90;;;;;;5004756;28;20029;-50
2022/03/16 08:32:18;;;;;;;28.45;18.75;;;6.90;99.90;;;;;;5004885;28;20048;-50
2022/03/16 08:34:44;;;;;;;29.60;18.25;;;7.00;99.90;;;;;;4991858;28;20467;-48
2022/03/16 08:37:10;;;;;;;29.38;18.35;;;7.10;99.90;;;;;;5004346;28;20139;-50
2022/03/16 08:39:36;;;;;;;;;;;7.20;99.90;;;;;;5006811;28;20475;-50
2022/03/16 08:42:02;;;;;;;29.75;16.67;;;7.40;99.90;;;;;;5004054;28;19972;-48
2022/03/16 08:44:27;;;;;;;29.38;16.80;;;7.50;99.90;;;;;;5005288;28;20081;-49
2022/03/16 08:46:53;;;;;;;27.15;16.15;;;7.60;99.90;;;;;;5003466;28;20033;-53
2022/03/16 08:49:18;;;;;;;31.35;17.85;;;7.70;99.90;;;;;;5004249;28;20025;-52
2022/03/16 08:51:44;;;;;;;22.05;14.73;;;7.70;99.90;;;;;;5004377;28;20038;-51
2022/03/16 08:54:10;;;;;;;28.65;18.48;;;7.80;99.90;;;;;;5005534;28;20037;-51
2022/03/16 08:56:36;;;;;;;;;;;8.00;99.90;;;;;;5005682;28;20048;-47
2022/03/16 08:59:02;;;;;;;25.67;15.27;;;8.10;99.90;;;;;;5006547;28;19909;-53
2022/03/16 09:01:27;;;;;;;26.40;14.70;;;8.30;99.90;;;;;;5004128;28;20040;-51
2022/03/16 09:03:56;;;;;;;22.60;14.60;;;8.60;99.90;;;;;;5004136;28;20499;-50
2022/03/16 09:06:21;;;;;;;25.58;15.75;;;8.70;99.90;;;;;;5005164;28;20038;-51
2022/03/16 09:08:47;;;;;;;26.90;15.90;;;8.90;99.90;;;;;;5004710;28;20402;-52
2022/03/16 09:11:13;;;;;;;31.67;14.88;;;9.00;99.90;;;;;;5003790;28;20080;-52
2022/03/16 09:13:39;;;;;;;22.13;14.43;;;9.20;99.90;;;;;;5005278;28;20033;-53
2022/03/16 09:16:04;;;;;;;;;;;9.30;99.90;;;;;;5003279;28;20478;-49
2022/03/16 09:18:30;;;;;;;21.25;14.13;;;9.40;99.90;;;;;;5005286;28;19921;-54
2022/03/16 09:20:55;;;;;;;21.80;13.88;;;9.40;99.90;;;;;;5004074;28;20026;-49
2022/03/16 09:23:21;;;;;;;;;;;9.50;99.90;;;;;;5006328;28;20083;-54
2022/03/16 09:25:46;;;;;;;21.73;13.38;;;9.50;99.90;;;;;;5002678;28;19909;-55
2022/03/16 09:28:12;;;;;;;23.65;15.50;;;9.60;99.90;;;;;;5005928;28;20036;-53
2022/03/16 09:30:38;;;;;;;25.13;14.45;;;9.60;99.90;;;;;;5001187;28;20033;-53
2022/03/16 09:33:04;;;;;;;;;;;9.80;99.90;;;;;;5005277;28;20088;-54
2022/03/16 09:35:31;;;;;;;18.63;11.85;;;10.00;99.90;;;;;;5003811;28;20325;-54
2022/03/16 09:37:58;;;;;;;23.67;12.45;;;10.20;99.90;;;;;;5002376;28;20491;-54
2022/03/16 09:40:24;;;;;;;20.48;13.38;;;10.40;99.90;;;;;;5003230;28;20021;-50
2022/03/16 09:42:52;;;;;;;22.38;12.18;;;10.60;99.90;;;;;;5004506;28;20033;-52
2022/03/16 09:45:20;;;;;;;21.02;13.55;;;10.80;99.90;;;;;;5002569;28;20029;-55
2022/03/16 09:47:47;;;;;;;25.55;13.18;;;10.90;99.90;;;;;;5004138;28;20033;-53
2022/03/16 09:50:17;;;;;;;26.52;14.52;;;10.90;99.90;;;;;;5003293;28;20026;-50
2022/03/16 09:52:44;;;;;;;24.95;13.85;;;11.00;99.90;;;;;;5003341;28;20113;-50
2022/03/16 09:55:09;;;;;;;24.25;13.43;;;11.10;99.90;;;;;;5004245;28;20495;-54
2022/03/16 09:57:35;;;;;;;;;;;11.20;99.90;;;;;;5006513;28;20045;-55
2022/03/16 10:00:01;;;;;;;21.52;12.70;;;11.20;99.90;;;;;;5004013;28;19910;-55
2022/03/16 10:02:27;;;;;;;19.17;12.20;;;11.30;99.90;;;;;;5002444;28;20028;-51
2022/03/16 10:04:53;;;;;;;;;;;11.40;99.90;;;;;;5003341;28;20030;-52
2022/03/16 10:07:29;;;;;;;24.27;14.38;;;11.50;99.90;;;;;;5003153;28;20019;-55
2022/03/16 10:15:23;;;;;;;21.52;12.45;;;11.80;99.10;;;;;;5002322;28;20096;-54
2022/03/16 10:18:02;;;;;;;;;;;11.90;99.40;;;;;;5004274;28;20034;-51
2022/03/16 10:20:28;;;;;;;20.58;10.93;;;12.00;99.90;;;;;;5003099;28;19913;-54
2022/03/16 10:22:56;;;;;;;26.02;12.57;;;12.10;99.30;;;;;;5002332;28;20018;-53
2022/03/16 10:25:23;;;;;;;20.27;9.70;;;12.10;99.30;;;;;;5003650;28;20033;-52
2022/03/16 10:27:48;;;;;;;28.42;10.48;;;12.20;98.40;;;;;;5003389;28;20565;-54
2022/03/16 10:30:14;;;;;;;;;;;12.20;98.10;;;;;;5002582;28;20478;-53
2022/03/16 10:32:52;;;;;;;19.10;8.75;;;12.20;97.10;;;;;;5003074;28;19920;-49
2022/03/16 10:35:17;;;;;;;16.02;9.52;;;12.20;97.30;;;;;;5002541;28;20030;-51
2022/03/16 10:37:43;;;;;;;;;;;12.20;97.60;;;;;;5006816;28;20026;-54
2022/03/16 10:40:18;;;;;;;14.93;8.00;;;12.20;97.80;;;;;;5006252;28;20357;-54
2022/03/16 10:48:14;;;;;;;20.20;11.00;;;12.40;97.30;;;;;;5004417;28;22338;-51
2022/03/16 10:50:41;;;;;;;25.58;11.95;;;12.40;97.60;;;;;;5004910;28;20026;-51
2022/03/16 10:53:09;;;;;;;23.90;13.95;;;12.50;97.30;;;;;;5003127;28;20365;-55
2022/03/16 10:55:36;;;;;;;22.98;11.23;;;12.50;97.50;;;;;;5007215;28;20124;-51
2022/03/16 10:58:02;;;;;;;20.55;11.98;;;12.40;97.50;;;;;;5006814;28;20520;-54
2022/03/16 11:00:28;;;;;;;20.05;13.77;;;12.40;98.00;;;;;;5005127;28;20068;-50
2022/03/16 11:02:54;;;;;;;;;;;12.40;97.70;;;;;;5006143;28;20057;-55
2022/03/16 11:05:20;;;;;;;19.75;11.75;;;12.30;97.90;;;;;;5005438;28;19917;-53
2022/03/16 11:07:49;;;;;;;;;;;12.30;97.80;;;;;;5023040;23;20042;-55
2022/03/16 11:10:15;;;;;;;20.35;10.80;;;12.30;97.90;;;;;;5007692;28;19943;-54
2022/03/16 11:15:25;;;;;;;25.88;11.85;;;12.40;97.50;;;;;;5009175;28;20083;-55
2022/03/16 11:17:51;;;;;;;;;;;12.50;97.50;;;;;;5004834;28;20419;-54
2022/03/16 11:20:19;;;;;;;24.02;11.93;;;12.60;97.30;;;;;;5002605;28;19957;-55
2022/03/16 11:25:51;;;;;;;18.80;11.85;;;12.90;97.60;;;;;;5001081;28;20100;-55
2022/03/16 11:28:29;;;;;;;19.13;11.50;;;13.00;96.70;;;;;;5000634;28;20026;-54
2022/03/16 11:30:59;;;;;;;22.42;11.80;;;12.90;96.80;;;;;;4998977;28;20041;-55
2022/03/16 11:33:25;;;;;;;16.65;11.77;;;12.90;97.60;;;;;;4998959;28;20038;-53
2022/03/16 11:35:52;;;;;;;;;;;13.00;97.30;;;;;;5003414;28;20069;-54
2022/03/16 11:38:18;;;;;;;24.42;14.43;;;13.00;96.90;;;;;;5000099;28;19916;-55
2022/03/16 11:40:45;;;;;;;;;;;13.00;96.80;;;;;;4998229;28;20022;-56
2022/03/16 11:43:23;;;;;;;36.25;22.48;;;13.00;96.90;;;;;;5000121;28;19952;-56
2022/03/16 11:45:57;;;;;;;40.05;19.17;;;13.10;96.60;;;;;;5000089;28;20124;-56
2022/03/16 11:48:32;;;;;;;22.00;14.80;;;13.20;96.80;;;;;;4997558;28;20499;-55
2022/03/16 11:51:11;;;;;;;29.08;13.52;;;13.30;97.00;;;;;;5002272;28;20374;-54
2022/03/16 11:53:46;;;;;;;24.98;12.57;;;13.30;96.70;;;;;;4998198;28;20557;-57
2022/03/16 11:56:20;;;;;;;17.17;12.05;;;13.40;96.20;;;;;;4999868;28;20034;-57
2022/03/16 11:58:47;;;;;;;21.08;12.88;;;13.40;96.00;;;;;;5002113;28;20022;-57
2022/03/16 12:01:37;;;;;;;22.05;13.23;;;13.40;95.00;;;;;;4998301;28;20023;-55
2022/03/16 12:04:12;;;;;;;22.63;13.63;;;13.30;95.50;;;;;;4997444;28;20390;-55
2022/03/16 12:07:01;;;;;;;24.75;13.20;;;13.10;94.90;;;;;;4996542;28;20076;-56
2022/03/16 12:09:52;;;;;;;24.42;12.65;;;13.00;95.40;;;;;;4997427;28;20038;-56
2022/03/16 12:15:14;;;;;;;16.20;9.98;;;13.20;93.90;;;;;;4998061;28;20144;-54
2022/03/16 12:17:52;;;;;;;13.73;8.88;;;13.10;93.40;;;;;;4997737;28;20029;-55
2022/03/16 12:20:20;;;;;;;25.27;13.60;;;13.20;93.70;;;;;;4996981;28;20554;-55
2022/03/16 12:22:47;;;;;;;39.38;21.60;;;13.30;93.50;;;;;;4997117;28;20029;-55
2022/03/16 12:25:41;;;;;;;16.15;11.18;;;13.20;93.40;;;;;;4995931;28;20088;-57
2022/03/16 12:31:07;;;;;;;18.42;9.50;;;13.10;91.80;;;;;;4995819;28;20459;-57
2022/03/16 12:33:42;;;;;;;19.85;10.38;;;13.20;92.20;;;;;;4997249;28;20053;-56
2022/03/16 12:36:11;;;;;;;17.52;8.38;;;13.30;91.10;;;;;;4999924;28;20491;-56
2022/03/16 12:38:40;;;;;;;11.43;7.25;;;13.30;85.60;;;;;;4996763;28;20056;-56
2022/03/16 12:44:01;;;;;;;17.80;9.52;;;13.30;88.80;;;;;;4998086;28;20032;-56
2022/03/16 12:46:33;;;;;;;22.42;12.90;;;13.30;87.80;;;;;;4997543;28;20022;-56
2022/03/16 12:49:14;;;;;;;13.07;6.72;;;13.40;91.40;;;;;;4997314;28;20057;-56
2022/03/16 12:51:46;;;;;;;10.40;6.55;;;13.50;90.70;;;;;;4998233;28;20034;-56
2022/03/16 12:54:20;;;;;;;11.70;7.00;;;13.70;87.10;;;;;;4995805;28;20034;-57
2022/03/16 12:56:50;;;;;;;12.02;6.10;;;13.80;90.60;;;;;;4997625;28;20095;-55
2022/03/16 12:59:24;;;;;;;10.35;7.00;;;14.00;84.40;;;;;;4998224;28;20088;-55
2022/03/16 13:01:53;;;;;;;7.75;5.70;;;14.00;80.90;;;;;;4998442;28;20034;-56
2022/03/16 13:04:19;;;;;;;14.25;7.13;;;14.00;80.60;;;;;;4996428;28;20104;-56
2022/03/16 13:06:45;;;;;;;;;;;14.10;81.30;;;;;;4998527;28;20121;-56
2022/03/16 13:09:11;;;;;;;13.98;7.43;;;14.10;82.90;;;;;;4995922;28;19917;-56
2022/03/16 13:11:39;;;;;;;15.82;9.27;;;14.20;79.50;;;;;;4998075;28;20042;-56